Terminal Aerodrome Forecast
Issued by NWS Albany, NY

Home | Current Version | Previous Version | Text Only | Print | Product List | Glossary On
Versions: 1 2 3 4 5 6 7 8 9 10 11 12 13
000
FTUS41 KALY 270900 AAA
TAFGFL
TAF AMD
KGFL 270911Z 2709/2806 00000KT P6SM OVC040
     FM271500 17004KT P6SM OVC040
     FM280300 VRB03KT P6SM BKN040 BKN100=

USA.gov is the U.S. government's official web portal to all federal, state and local government web resources and services.